createdAt,value
2018-11-14T00:00:28.927Z,100682.26
2018-11-14T00:06:33.633Z,100682.04
2018-11-14T00:12:38.421Z,100700.86
2018-11-14T00:18:43.835Z,100700.06
2018-11-14T00:24:48.543Z,100704.11
2018-11-14T00:30:53.224Z,100712.83
2018-11-14T00:36:58.964Z,100702.69
2018-11-14T00:43:03.662Z,100709.78
2018-11-14T00:49:08.721Z,100708.27
2018-11-14T00:55:16.227Z,100716.19
2018-11-14T01:01:20.935Z,100716.33
2018-11-14T01:07:25.604Z,100725.81
2018-11-14T01:13:30.289Z,100728.94
2018-11-14T01:19:35.373Z,100722.75
2018-11-14T01:25:40.087Z,100722.70
2018-11-14T01:31:45.256Z,100721.78
2018-11-14T01:37:50.064Z,100714.22
2018-11-14T01:43:54.729Z,100721.08
2018-11-14T01:49:59.619Z,100718.98
2018-11-14T01:56:04.636Z,100711.87
2018-11-14T02:02:09.675Z,100716.81
2018-11-14T02:08:14.339Z,100717.90
2018-11-14T02:14:19.304Z,100713.96
2018-11-14T02:20:24.091Z,100707.91
2018-11-14T02:26:28.752Z,100708.27
2018-11-14T02:32:33.723Z,100701.92
2018-11-14T02:38:38.412Z,100701.02
2018-11-14T02:44:43.754Z,100695.87
2018-11-14T02:50:48.478Z,100699.30
2018-11-14T02:56:53.136Z,100705.19
2018-11-14T03:02:58.375Z,100706.53
2018-11-14T03:09:04.120Z,100713.43
2018-11-14T03:15:12.189Z,100723.41
2018-11-14T03:21:20.271Z,100707.20
2018-11-14T03:27:25.054Z,100710.58
2018-11-14T03:33:29.991Z,100710.44
2018-11-14T03:39:34.640Z,100714.78
2018-11-14T03:45:39.402Z,100713.56
2018-11-14T03:51:44.492Z,100711.23
2018-11-14T03:57:49.535Z,100726.69
2018-11-14T04:03:54.292Z,100721.19
2018-11-14T04:09:59.407Z,100714.57
2018-11-14T04:16:04.485Z,100715.41
2018-11-14T04:22:09.114Z,100729.00
2018-11-14T04:28:13.732Z,100706.94
2018-11-14T04:34:18.371Z,100694.75
2018-11-14T04:40:24.125Z,100699.83
2018-11-14T04:46:28.833Z,100700.20
2018-11-14T04:52:33.474Z,100699.81
2018-11-14T04:58:38.516Z,100695.95
2018-11-14T05:04:43.261Z,100695.64
2018-11-14T05:10:48.379Z,100691.50
2018-11-14T05:16:53.013Z,100688.96
2018-11-14T05:22:58.029Z,100686.62
2018-11-14T05:29:03.145Z,100695.02
2018-11-14T05:35:09.968Z,100703.47
2018-11-14T05:41:14.637Z,100692.06
2018-11-14T05:47:19.352Z,100686.95
2018-11-14T05:53:24.586Z,100691.31
2018-11-14T05:59:29.263Z,100677.23
2018-11-14T06:05:33.967Z,100695.72
2018-11-14T06:11:38.727Z,100695.92
2018-11-14T06:17:44.753Z,100717.12
2018-11-14T06:23:49.558Z,100714.16
2018-11-14T06:29:54.159Z,100715.67
2018-11-14T06:35:59.185Z,100709.09
2018-11-14T06:42:03.947Z,100707.48
2018-11-14T06:48:08.595Z,100709.16
2018-11-14T06:54:13.335Z,100722.19
2018-11-14T07:00:28.183Z,100726.66
2018-11-14T07:06:32.848Z,100749.29
2018-11-14T07:12:37.840Z,100751.47
2018-11-14T07:18:42.537Z,100754.23
2018-11-14T07:24:47.275Z,100750.03
2018-11-14T07:30:51.933Z,100746.13
2018-11-14T07:36:56.610Z,100743.96
2018-11-14T07:43:01.243Z,100754.98
2018-11-14T07:49:06.923Z,100749.83
2018-11-14T07:55:12.345Z,100754.52
2018-11-14T08:01:17.590Z,100749.84
2018-11-14T08:07:23.009Z,100752.01
2018-11-14T08:13:28.744Z,100754.67
2018-11-14T08:19:33.435Z,100751.88
2018-11-14T08:25:38.432Z,100750.97
2018-11-14T08:31:43.129Z,100756.45
2018-11-14T08:37:48.207Z,100768.73
2018-11-14T08:43:53.716Z,100780.27
2018-11-14T08:49:58.483Z,100784.65
2018-11-14T08:56:04.082Z,100772.39
2018-11-14T09:02:09.191Z,100763.69
2018-11-14T09:08:13.865Z,100758.68
2018-11-14T09:14:18.887Z,100761.70
2018-11-14T09:20:24.881Z,100767.64
2018-11-14T09:26:29.592Z,100777.18
2018-11-14T09:32:34.228Z,100782.20
2018-11-14T09:38:38.902Z,100783.48
2018-11-14T09:44:43.610Z,100779.66
2018-11-14T09:50:48.342Z,100778.48
2018-11-14T09:56:53.435Z,100790.47
2018-11-14T10:03:03.443Z,100791.41
2018-11-14T10:09:12.091Z,100794.98
2018-11-14T10:15:18.859Z,100778.42
2018-11-14T10:21:23.685Z,100775.28
2018-11-14T10:27:28.421Z,100783.36
2018-11-14T10:33:33.108Z,100776.22
2018-11-14T10:39:37.790Z,100770.45
2018-11-14T10:45:42.536Z,100762.58
2018-11-14T10:51:47.180Z,100755.73
2018-11-14T10:57:52.907Z,100753.38
2018-11-14T11:04:02.685Z,100747.03
2018-11-14T11:10:13.382Z,100757.93
2018-11-14T11:16:23.307Z,100758.95
2018-11-14T11:22:27.965Z,100751.08
2018-11-14T11:28:33.062Z,100750.91
2018-11-14T11:34:37.741Z,100755.95
2018-11-14T11:40:42.740Z,100739.33
2018-11-14T11:46:47.436Z,100734.29
2018-11-14T11:52:52.114Z,100725.87
2018-11-14T11:58:57.051Z,100707.05
2018-11-14T12:05:02.077Z,100707.80
2018-11-14T12:11:07.275Z,100708.98
2018-11-14T12:17:12.991Z,100699.59
2018-11-14T12:23:17.699Z,100682.08
2018-11-14T12:29:22.399Z,100680.13
2018-11-14T12:35:27.193Z,100658.70
2018-11-14T12:41:31.817Z,100656.09
2018-11-14T12:47:36.879Z,100661.34
2018-11-14T12:53:41.593Z,100657.63
2018-11-14T12:59:46.729Z,100653.16
2018-11-14T13:05:51.442Z,100658.81
2018-11-14T13:11:56.289Z,100672.83
2018-11-14T13:18:01.041Z,100668.75
2018-11-14T13:24:06.115Z,100675.03
2018-11-14T13:30:14.999Z,100683.05
2018-11-14T13:36:19.723Z,100681.27
2018-11-14T13:42:24.443Z,100680.75
2018-11-14T13:48:29.863Z,100682.03
2018-11-14T13:54:34.523Z,100676.36
2018-11-14T14:00:39.220Z,100664.81
2018-11-14T14:06:44.261Z,100650.61
2018-11-14T14:12:50.478Z,100642.06
2018-11-14T14:18:55.148Z,100646.63
2018-11-14T14:25:00.510Z,100648.09
2018-11-14T14:31:06.308Z,100653.28
2018-11-14T14:37:11.149Z,100668.19
2018-11-14T14:43:15.880Z,100672.50
2018-11-14T14:49:20.559Z,100662.41
2018-11-14T14:55:26.282Z,100653.90
2018-11-14T15:01:31.068Z,100653.84
2018-11-14T15:07:35.998Z,100663.06
2018-11-14T15:13:40.933Z,100643.95
2018-11-14T15:19:45.695Z,100643.03
2018-11-14T15:25:50.518Z,100636.80
2018-11-14T15:31:55.264Z,100636.71
2018-11-14T15:38:01.124Z,100634.78
2018-11-14T15:44:06.004Z,100636.19
2018-11-14T15:50:13.898Z,100652.68
2018-11-14T15:56:18.718Z,100653.24
2018-11-14T16:02:24.153Z,100654.63
2018-11-14T16:08:29.564Z,100655.79
2018-11-14T16:14:34.329Z,100657.14
2018-11-14T16:20:39.425Z,100663.45
2018-11-14T16:26:44.334Z,100664.84
2018-11-14T16:32:50.939Z,100664.95
2018-11-14T16:38:55.667Z,100665.27
2018-11-14T16:45:01.029Z,100665.52
2018-11-14T16:51:05.892Z,100668.50
2018-11-14T16:57:10.755Z,100661.27
2018-11-14T17:03:15.446Z,100666.88
2018-11-14T17:09:20.526Z,100664.49
2018-11-14T17:15:26.534Z,100656.63
2018-11-14T17:21:31.942Z,100652.41
2018-11-14T17:27:37.364Z,100635.05
2018-11-14T17:33:42.045Z,100630.78
2018-11-14T17:39:46.790Z,100631.08
2018-11-14T17:45:51.888Z,100637.76
2018-11-14T17:51:56.683Z,100646.89
2018-11-14T17:58:01.568Z,100658.48
2018-11-14T18:04:06.335Z,100664.27
2018-11-14T18:10:13.493Z,100673.84
2018-11-14T18:16:18.175Z,100673.61
2018-11-14T18:22:22.892Z,100673.79
2018-11-14T18:28:27.568Z,100669.91
2018-11-14T18:34:32.755Z,100675.03
2018-11-14T18:40:38.135Z,100673.70
2018-11-14T18:46:42.853Z,100681.17
2018-11-14T18:52:48.085Z,100676.21
2018-11-14T18:58:52.819Z,100678.25
2018-11-14T19:04:57.532Z,100669.92
2018-11-14T19:11:02.324Z,100665.19
2018-11-14T19:17:07.163Z,100672.14
2018-11-14T19:23:11.983Z,100667.38
2018-11-14T19:29:16.767Z,100665.75
2018-11-14T19:35:21.698Z,100668.30
2018-11-14T19:41:26.414Z,100667.66
2018-11-14T19:47:31.501Z,100667.00
2018-11-14T19:53:36.192Z,100660.68
2018-11-14T19:59:41.406Z,100661.94
2018-11-14T20:05:46.192Z,100656.59
2018-11-14T20:11:51.256Z,100650.94
2018-11-14T20:17:55.988Z,100655.36
2018-11-14T20:24:01.007Z,100655.36
2018-11-14T20:30:15.957Z,100661.75
2018-11-14T20:36:20.675Z,100661.94
2018-11-14T20:42:26.339Z,100651.93
2018-11-14T20:48:30.992Z,100650.44
2018-11-14T20:54:35.693Z,100643.69
2018-11-14T21:00:40.727Z,100641.85
2018-11-14T21:06:45.506Z,100639.44
2018-11-14T21:12:51.145Z,100636.03
2018-11-14T21:18:55.951Z,100637.29
2018-11-14T21:25:00.655Z,100654.88
2018-11-14T21:31:06.139Z,100644.59
2018-11-14T21:37:10.914Z,100644.20
2018-11-14T21:43:16.070Z,100630.16
2018-11-14T21:49:26.373Z,100628.89
2018-11-14T21:55:31.088Z,100618.05
2018-11-14T22:01:36.303Z,100602.59
2018-11-14T22:07:40.968Z,100606.73
2018-11-14T22:13:45.739Z,100621.95
2018-11-14T22:19:50.388Z,100611.47
2018-11-14T22:25:55.159Z,100616.14
2018-11-14T22:32:00.619Z,100621.65
2018-11-14T22:38:05.343Z,100630.52
2018-11-14T22:44:10.805Z,100623.09
2018-11-14T22:50:16.898Z,100628.50
2018-11-14T22:56:21.999Z,100628.13
2018-11-14T23:02:26.850Z,100608.64
2018-11-14T23:08:31.940Z,100599.28
2018-11-14T23:14:36.983Z,100598.21
2018-11-14T23:20:42.413Z,100605.38
2018-11-14T23:26:47.497Z,100595.91
2018-11-14T23:32:53.489Z,100594.35
2018-11-14T23:38:59.173Z,100592.18
2018-11-14T23:45:04.089Z,100581.07
2018-11-14T23:51:08.839Z,100589.82
2018-11-14T23:57:13.946Z,100594.23
